createdAt,value
2017-09-23T00:00:09.276Z,1039.92
2017-09-23T00:01:09.267Z,1039.91
2017-09-23T00:02:09.260Z,1039.9
2017-09-23T00:03:09.247Z,1039.89
2017-09-23T00:04:09.237Z,1039.93
2017-09-23T00:05:09.227Z,1039.94
2017-09-23T00:06:09.216Z,1039.9
2017-09-23T00:07:09.208Z,1039.92
2017-09-23T00:08:09.199Z,1039.89
2017-09-23T00:09:09.189Z,1039.96
2017-09-23T00:10:09.179Z,1039.94
2017-09-23T00:11:09.168Z,1039.95
2017-09-23T00:12:09.159Z,1039.97
2017-09-23T00:13:09.151Z,1039.97
2017-09-23T00:14:09.141Z,1039.96
2017-09-23T00:15:09.131Z,1039.93
2017-09-23T00:16:09.121Z,1039.95
2017-09-23T00:17:09.111Z,1039.94
2017-09-23T00:18:09.101Z,1039.92
2017-09-23T00:19:09.092Z,1039.91
2017-09-23T00:20:09.083Z,1039.89
2017-09-23T00:21:09.073Z,1039.89
2017-09-23T00:22:09.062Z,1039.88
2017-09-23T00:23:09.052Z,1039.91
2017-09-23T00:24:09.044Z,1039.89
2017-09-23T00:25:09.033Z,1039.88
2017-09-23T00:26:09.022Z,1039.9
2017-09-23T00:27:09.013Z,1039.94
2017-09-23T00:28:09.004Z,1039.94
2017-09-23T00:29:08.995Z,1039.93
2017-09-23T00:30:08.985Z,1039.94
2017-09-23T00:31:08.975Z,1039.98
2017-09-23T00:32:08.965Z,1039.95
2017-09-23T00:33:08.954Z,1039.96
2017-09-23T00:34:08.947Z,1039.98
2017-09-23T00:35:08.937Z,1039.99
2017-09-23T00:36:08.926Z,1040.03
2017-09-23T00:37:08.915Z,1040.02
2017-09-23T00:38:08.907Z,1040.06
2017-09-23T00:39:08.895Z,1040.03
2017-09-23T00:40:08.887Z,1040.02
2017-09-23T00:41:08.878Z,1040.09
2017-09-23T00:42:08.867Z,1040.13
2017-09-23T00:43:08.858Z,1040.08
2017-09-23T00:44:08.847Z,1040.14
2017-09-23T00:45:08.837Z,1040.13
2017-09-23T00:46:08.828Z,1040.13
2017-09-23T00:47:08.817Z,1040.11
2017-09-23T00:48:08.808Z,1040.13
2017-09-23T00:49:08.799Z,1040.07
2017-09-23T00:50:08.789Z,1040.06
2017-09-23T00:51:08.780Z,1040.08
2017-09-23T00:52:08.768Z,1040.07
2017-09-23T00:53:08.759Z,1040.02
2017-09-23T00:54:08.748Z,1040.01
2017-09-23T00:55:08.738Z,1040.01
2017-09-23T00:56:08.731Z,1039.99
2017-09-23T00:57:08.721Z,1039.98
2017-09-23T00:58:08.712Z,1040.01
2017-09-23T00:59:08.700Z,1039.97
2017-09-23T01:00:08.692Z,1040.02
2017-09-23T01:01:08.682Z,1039.96
2017-09-23T01:02:08.672Z,1039.97
2017-09-23T01:03:08.662Z,1039.96
2017-09-23T01:04:08.651Z,1039.98
2017-09-23T01:05:08.641Z,1039.95
2017-09-23T01:06:08.632Z,1040
2017-09-23T01:07:08.622Z,1039.97
2017-09-23T01:08:08.613Z,1039.96
2017-09-23T01:09:08.602Z,1040.02
2017-09-23T01:10:08.593Z,1039.97
2017-09-23T01:11:08.584Z,1040.02
2017-09-23T01:12:08.573Z,1040
2017-09-23T01:13:08.563Z,1040.03
2017-09-23T01:14:08.552Z,1039.99
2017-09-23T01:15:08.543Z,1039.98
2017-09-23T01:16:08.533Z,1039.99
2017-09-23T01:17:08.523Z,1039.99
2017-09-23T01:18:08.513Z,1040
2017-09-23T01:19:08.502Z,1039.97
2017-09-23T01:20:08.491Z,1039.96
2017-09-23T01:21:08.482Z,1040.01
2017-09-23T01:22:08.472Z,1039.99
2017-09-23T01:23:08.463Z,1039.99
2017-09-23T01:24:08.454Z,1039.96
2017-09-23T01:25:08.442Z,1039.96
2017-09-23T01:26:08.433Z,1039.94
2017-09-23T01:27:08.422Z,1039.93
2017-09-23T01:28:08.412Z,1039.9
2017-09-23T01:29:08.403Z,1039.88
2017-09-23T01:30:08.393Z,1039.91
2017-09-23T01:31:08.384Z,1039.85
2017-09-23T01:32:08.372Z,1039.86
2017-09-23T01:33:08.362Z,1039.87
2017-09-23T01:34:08.354Z,1039.88
2017-09-23T01:35:08.342Z,1039.9
2017-09-23T01:36:08.334Z,1039.88
2017-09-23T01:37:08.324Z,1039.94
2017-09-23T01:38:08.313Z,1039.87
2017-09-23T01:39:08.304Z,1039.89
2017-09-23T01:40:08.297Z,1039.87
2017-09-23T01:41:08.282Z,1039.87
2017-09-23T01:42:08.274Z,1039.82
2017-09-23T01:43:08.262Z,1039.81
2017-09-23T01:44:08.253Z,1039.8
2017-09-23T01:45:08.243Z,1039.77
2017-09-23T01:46:08.233Z,1039.77
2017-09-23T01:47:08.222Z,1039.76
2017-09-23T01:48:08.212Z,1039.74
2017-09-23T01:49:08.201Z,1039.75
2017-09-23T01:50:08.192Z,1039.76
2017-09-23T01:51:08.182Z,1039.76
2017-09-23T01:52:08.170Z,1039.75
2017-09-23T01:53:08.161Z,1039.76
2017-09-23T01:54:08.151Z,1039.78
2017-09-23T01:55:08.142Z,1039.77
2017-09-23T01:56:08.131Z,1039.8
2017-09-23T01:57:08.121Z,1039.76
2017-09-23T01:58:08.113Z,1039.8
2017-09-23T01:59:08.103Z,1039.76
2017-09-23T02:00:08.091Z,1039.73
2017-09-23T02:01:08.081Z,1039.75
2017-09-23T02:02:08.071Z,1039.75
2017-09-23T02:03:08.060Z,1039.75
2017-09-23T02:04:08.058Z,1039.79
2017-09-23T02:05:08.073Z,1039.77
2017-09-23T02:06:08.032Z,1039.78
2017-09-23T02:07:08.021Z,1039.75
2017-09-23T02:08:08.011Z,1039.79
2017-09-23T02:09:08.001Z,1039.82
2017-09-23T02:10:07.990Z,1039.82
2017-09-23T02:11:07.981Z,1039.85
2017-09-23T02:12:07.971Z,1039.83
2017-09-23T02:13:07.961Z,1039.82
2017-09-23T02:14:07.949Z,1039.86
2017-09-23T02:15:07.939Z,1039.85
2017-09-23T02:16:07.929Z,1039.82
2017-09-23T02:17:07.920Z,1039.79
2017-09-23T02:18:07.909Z,1039.77
2017-09-23T02:19:07.900Z,1039.79
2017-09-23T02:20:07.888Z,1039.76
2017-09-23T02:21:07.878Z,1039.74
2017-09-23T02:22:07.868Z,1039.77
2017-09-23T02:23:07.857Z,1039.69
2017-09-23T02:24:07.849Z,1039.73
2017-09-23T02:25:08.138Z,1039.75
2017-09-23T02:26:07.828Z,1039.74
2017-09-23T02:27:07.819Z,1039.72
2017-09-23T02:28:07.807Z,1039.72
2017-09-23T02:29:07.796Z,1039.73
2017-09-23T02:30:07.786Z,1039.73
2017-09-23T02:31:07.776Z,1039.75
2017-09-23T02:32:07.772Z,1039.79
2017-09-23T02:33:07.759Z,1039.77
2017-09-23T02:34:07.751Z,1039.77
2017-09-23T02:35:07.738Z,1039.81
2017-09-23T02:36:07.725Z,1039.83
2017-09-23T02:37:07.715Z,1039.82
2017-09-23T02:38:07.706Z,1039.82
2017-09-23T02:39:07.695Z,1039.84
2017-09-23T02:40:07.686Z,1039.82
2017-09-23T02:41:07.676Z,1039.82
2017-09-23T02:42:07.672Z,1039.81
2017-09-23T02:43:07.686Z,1039.8
2017-09-23T02:44:07.652Z,1039.78
2017-09-23T02:45:07.635Z,1039.8
2017-09-23T02:46:07.626Z,1039.81
2017-09-23T02:47:07.614Z,1039.81
2017-09-23T02:48:07.602Z,1039.8
2017-09-23T02:49:07.592Z,1039.78
2017-09-23T02:50:07.583Z,1039.8
2017-09-23T02:51:07.571Z,1039.78
2017-09-23T02:52:07.563Z,1039.8
2017-09-23T02:53:07.553Z,1039.83
2017-09-23T02:54:07.542Z,1039.76
2017-09-23T02:55:07.535Z,1039.75
2017-09-23T02:56:07.521Z,1039.74
2017-09-23T02:57:07.511Z,1039.77
2017-09-23T02:58:07.500Z,1039.75
2017-09-23T02:59:07.490Z,1039.75
2017-09-23T03:00:07.483Z,1039.76
2017-09-23T03:01:07.470Z,1039.75
2017-09-23T03:02:07.460Z,1039.76
2017-09-23T03:03:07.448Z,1039.76
2017-09-23T03:04:07.437Z,1039.74
2017-09-23T03:05:07.427Z,1039.74
2017-09-23T03:06:07.416Z,1039.78
2017-09-23T03:07:07.406Z,1039.81
2017-09-23T03:08:07.397Z,1039.8
2017-09-23T03:09:07.387Z,1039.82
2017-09-23T03:10:07.377Z,1039.84
2017-09-23T03:11:07.366Z,1039.88
2017-09-23T03:12:07.355Z,1039.91
2017-09-23T03:13:07.344Z,1039.94
2017-09-23T03:14:07.334Z,1040.01
2017-09-23T03:15:07.325Z,1039.99
2017-09-23T03:16:07.314Z,1040.02
2017-09-23T03:17:07.306Z,1040.08
2017-09-23T03:18:07.294Z,1040.07
2017-09-23T03:19:07.284Z,1040.08
2017-09-23T03:20:07.271Z,1040.11
2017-09-23T03:21:07.261Z,1040.11
2017-09-23T03:22:07.251Z,1040.13
2017-09-23T03:23:07.242Z,1040.16
2017-09-23T03:24:07.231Z,1040.2
2017-09-23T03:25:07.221Z,1040.2
2017-09-23T03:26:07.211Z,1040.22
2017-09-23T03:27:07.199Z,1040.26
2017-09-23T03:28:07.188Z,1040.27
2017-09-23T03:29:07.179Z,1040.29
2017-09-23T03:30:07.169Z,1040.27
2017-09-23T03:31:07.158Z,1040.27
2017-09-23T03:32:07.148Z,1040.25
2017-09-23T03:33:07.137Z,1040.27
2017-09-23T03:34:07.126Z,1040.24
2017-09-23T03:35:07.116Z,1040.27
2017-09-23T03:36:07.111Z,1040.26
2017-09-23T03:37:07.097Z,1040.25
2017-09-23T03:38:07.085Z,1040.25
2017-09-23T03:39:07.075Z,1040.21
2017-09-23T03:40:07.068Z,1040.24
2017-09-23T03:41:07.053Z,1040.27
2017-09-23T03:42:07.042Z,1040.27
2017-09-23T03:43:07.032Z,1040.29
2017-09-23T03:44:07.024Z,1040.31
2017-09-23T03:45:07.015Z,1040.31
2017-09-23T03:46:07.002Z,1040.3
2017-09-23T03:47:06.992Z,1040.27
2017-09-23T03:48:06.980Z,1040.28
2017-09-23T03:49:06.969Z,1040.27
2017-09-23T03:50:06.959Z,1040.29
2017-09-23T03:51:06.950Z,1040.27
2017-09-23T03:52:06.940Z,1040.24
2017-09-23T03:53:06.929Z,1040.24
2017-09-23T03:54:06.919Z,1040.24
2017-09-23T03:55:06.908Z,1040.19
2017-09-23T03:56:06.898Z,1040.19
2017-09-23T03:57:06.886Z,1040.17
2017-09-23T03:58:06.876Z,1040.17
2017-09-23T03:59:06.866Z,1040.14
2017-09-23T04:00:06.853Z,1040.07
2017-09-23T04:01:06.844Z,1040.07
2017-09-23T04:02:06.834Z,1040.03
2017-09-23T04:03:06.823Z,1040.05
2017-09-23T04:04:06.814Z,1040.03
2017-09-23T04:05:06.804Z,1040.02
2017-09-23T04:06:06.794Z,1040
2017-09-23T04:07:06.783Z,1039.99
2017-09-23T04:08:06.771Z,1040.01
2017-09-23T04:09:06.761Z,1039.99
2017-09-23T04:10:06.751Z,1040
2017-09-23T04:11:06.739Z,1040.01
2017-09-23T04:12:06.731Z,1039.98
2017-09-23T04:13:06.721Z,1040.04
2017-09-23T04:14:06.710Z,1040.09
2017-09-23T04:15:06.703Z,1040.09
2017-09-23T04:16:06.687Z,1040.08
2017-09-23T04:17:06.678Z,1040.1
2017-09-23T04:18:06.665Z,1040.1
2017-09-23T04:19:06.655Z,1040.13
2017-09-23T04:20:06.647Z,1040.11
2017-09-23T04:21:06.636Z,1040.09
2017-09-23T04:22:06.627Z,1040.07
2017-09-23T04:23:06.614Z,1040.07
2017-09-23T04:24:06.605Z,1040.03
2017-09-23T04:25:06.595Z,1040.05
2017-09-23T04:26:06.583Z,1040.03
2017-09-23T04:27:06.573Z,1040.04
2017-09-23T04:28:06.561Z,1040.04
2017-09-23T04:29:06.551Z,1040.03
2017-09-23T04:30:06.539Z,1040.08
2017-09-23T04:31:06.530Z,1040.05
2017-09-23T04:32:06.520Z,1040.04
2017-09-23T04:33:06.508Z,1040.02
2017-09-23T04:34:06.499Z,1040
2017-09-23T04:35:06.489Z,1039.98
2017-09-23T04:36:06.477Z,1039.95
2017-09-23T04:37:06.466Z,1039.98
2017-09-23T04:38:06.456Z,1039.94
2017-09-23T04:39:06.445Z,1039.92
2017-09-23T04:40:06.685Z,1039.92
2017-09-23T04:41:06.424Z,1039.92
2017-09-23T04:42:06.415Z,1039.94
2017-09-23T04:43:06.405Z,1039.95
2017-09-23T04:44:06.398Z,1039.96
2017-09-23T04:45:06.381Z,1039.96
2017-09-23T04:46:06.371Z,1039.96
2017-09-23T04:47:06.362Z,1039.97
2017-09-23T04:48:06.352Z,1039.98
2017-09-23T04:49:06.341Z,1039.97
2017-09-23T04:50:06.329Z,1039.96
2017-09-23T04:51:06.318Z,1039.97
2017-09-23T04:52:06.308Z,1039.96
2017-09-23T04:53:06.299Z,1039.92
2017-09-23T04:54:06.288Z,1039.96
2017-09-23T04:55:06.277Z,1039.96
2017-09-23T04:56:06.266Z,1039.95
2017-09-23T04:57:06.255Z,1040.01
2017-09-23T04:58:06.245Z,1040.05
2017-09-23T04:59:06.234Z,1040.08
2017-09-23T05:00:06.224Z,1040.12
2017-09-23T05:01:06.215Z,1040.14
2017-09-23T05:02:06.203Z,1040.18
2017-09-23T05:03:06.199Z,1040.26
2017-09-23T05:04:06.181Z,1040.28
2017-09-23T05:05:06.171Z,1040.3
2017-09-23T05:06:06.161Z,1040.32
2017-09-23T05:07:06.150Z,1040.35
2017-09-23T05:08:06.141Z,1040.31
2017-09-23T05:09:06.131Z,1040.31
2017-09-23T05:10:06.119Z,1040.34
2017-09-23T05:11:06.110Z,1040.31
2017-09-23T05:12:06.099Z,1040.33
2017-09-23T05:13:06.091Z,1040.29
2017-09-23T05:14:06.076Z,1040.3
2017-09-23T05:15:06.068Z,1040.29
2017-09-23T05:16:06.056Z,1040.25
2017-09-23T05:17:06.046Z,1040.28
2017-09-23T05:18:06.034Z,1040.26
2017-09-23T05:19:06.027Z,1040.26
2017-09-23T05:20:06.015Z,1040.19
2017-09-23T05:21:06.004Z,1040.17
2017-09-23T05:22:05.993Z,1040.15
2017-09-23T05:23:05.983Z,1040.16
2017-09-23T05:24:05.971Z,1040.18
2017-09-23T05:25:05.962Z,1040.17
2017-09-23T05:26:05.951Z,1040.16
2017-09-23T05:27:05.941Z,1040.15
2017-09-23T05:28:05.930Z,1040.12
2017-09-23T05:29:05.920Z,1040.11
2017-09-23T05:30:05.911Z,1040.09
2017-09-23T05:31:05.900Z,1040.02
2017-09-23T05:32:05.888Z,1040
2017-09-23T05:33:05.878Z,1039.95
2017-09-23T05:34:05.868Z,1039.91
2017-09-23T05:35:05.858Z,1039.88
2017-09-23T05:36:05.849Z,1039.86
2017-09-23T05:37:05.839Z,1039.86
2017-09-23T05:38:05.829Z,1039.85
2017-09-23T05:39:05.818Z,1039.77
2017-09-23T05:40:05.806Z,1039.8
2017-09-23T05:41:05.798Z,1039.79
2017-09-23T05:42:05.788Z,1039.78
2017-09-23T05:43:05.778Z,1039.76
2017-09-23T05:44:05.767Z,1039.76
2017-09-23T05:45:05.757Z,1039.71
2017-09-23T05:46:05.746Z,1039.72
2017-09-23T05:47:05.737Z,1039.72
2017-09-23T05:48:05.728Z,1039.67
2017-09-23T05:49:05.717Z,1039.71
2017-09-23T05:50:05.707Z,1039.72
2017-09-23T05:51:05.697Z,1039.72
2017-09-23T05:52:05.686Z,1039.73
2017-09-23T05:53:05.675Z,1039.7
2017-09-23T05:54:05.666Z,1039.68
2017-09-23T05:55:05.657Z,1039.65
2017-09-23T05:56:05.648Z,1039.66
2017-09-23T05:57:05.637Z,1039.65
2017-09-23T05:58:05.628Z,1039.6
2017-09-23T05:59:05.618Z,1039.56
2017-09-23T06:00:05.608Z,1039.53
2017-09-23T06:01:05.605Z,1039.51
2017-09-23T06:02:05.587Z,1039.47
2017-09-23T06:03:05.582Z,1039.45
2017-09-23T06:04:05.569Z,1039.43
2017-09-23T06:05:05.561Z,1039.37
2017-09-23T06:06:05.548Z,1039.35
2017-09-23T06:07:05.539Z,1039.28
2017-09-23T06:08:05.530Z,1039.21
2017-09-23T06:09:05.521Z,1039.16
2017-09-23T06:10:05.511Z,1039.1
2017-09-23T06:11:05.502Z,1039.01
2017-09-23T06:12:05.491Z,1038.91
2017-09-23T06:13:05.482Z,1038.79
2017-09-23T06:14:05.472Z,1038.76
2017-09-23T06:15:05.462Z,1038.64
2017-09-23T06:16:05.455Z,1038.53
2017-09-23T06:17:05.446Z,1038.51
2017-09-23T06:18:05.436Z,1038.46
2017-09-23T06:19:05.428Z,1038.4
2017-09-23T06:20:05.417Z,1038.32
2017-09-23T06:21:05.413Z,1038.31
2017-09-23T06:22:05.400Z,1038.3
2017-09-23T06:23:05.390Z,1038.24
2017-09-23T06:24:05.386Z,1038.11
2017-09-23T06:25:05.376Z,1037.97
2017-09-23T06:26:05.366Z,1037.74
2017-09-23T06:27:05.359Z,1037.58
2017-09-23T06:28:05.349Z,1037.34
2017-09-23T06:29:05.341Z,1037.1
2017-09-23T06:30:05.332Z,1037.04
2017-09-23T06:31:05.324Z,1036.91
2017-09-23T06:32:05.318Z,1036.83
2017-09-23T06:33:05.310Z,1036.85
2017-09-23T06:34:05.303Z,1036.83
2017-09-23T06:35:05.296Z,1036.82
2017-09-23T06:36:05.287Z,1036.78
2017-09-23T06:37:05.279Z,1036.76
2017-09-23T06:38:05.273Z,1036.71
2017-09-23T06:39:05.267Z,1036.7
2017-09-23T06:40:05.261Z,1036.76
2017-09-23T06:41:05.253Z,1036.82
2017-09-23T06:42:05.247Z,1036.81
2017-09-23T06:43:05.240Z,1036.81
2017-09-23T06:44:05.233Z,1036.79
2017-09-23T06:45:05.226Z,1036.73
2017-09-23T06:46:05.219Z,1036.71
2017-09-23T06:47:05.213Z,1036.64
2017-09-23T06:48:05.207Z,1036.67
2017-09-23T06:49:05.201Z,1036.59
2017-09-23T06:50:05.197Z,1036.47
2017-09-23T06:51:05.188Z,1036.43
2017-09-23T06:52:05.181Z,1036.42
2017-09-23T06:53:05.175Z,1036.45
2017-09-23T06:54:05.169Z,1036.47
2017-09-23T06:55:05.168Z,1036.55
2017-09-23T06:56:05.157Z,1036.56
2017-09-23T06:57:05.153Z,1036.61
2017-09-23T06:58:05.146Z,1036.63
2017-09-23T06:59:05.139Z,1036.66
2017-09-23T07:00:05.135Z,1036.65
2017-09-23T07:01:05.131Z,1036.65
2017-09-23T07:02:05.125Z,1036.6
2017-09-23T07:03:05.118Z,1036.58
2017-09-23T07:04:05.112Z,1036.59
2017-09-23T07:05:05.107Z,1036.59
2017-09-23T07:06:05.103Z,1036.62
2017-09-23T07:07:05.095Z,1036.57
2017-09-23T07:08:05.094Z,1036.64
2017-09-23T07:09:05.086Z,1036.67
2017-09-23T07:10:05.081Z,1036.67
2017-09-23T07:11:05.075Z,1036.71
2017-09-23T07:12:05.070Z,1036.71
2017-09-23T07:13:05.064Z,1036.71
2017-09-23T07:14:05.059Z,1036.67
2017-09-23T07:15:05.053Z,1036.69
2017-09-23T07:16:05.049Z,1036.64
2017-09-23T07:17:05.044Z,1036.6
2017-09-23T07:18:05.038Z,1036.62
2017-09-23T07:19:05.034Z,1036.57
2017-09-23T07:20:05.027Z,1036.59
2017-09-23T07:21:05.022Z,1036.66
2017-09-23T07:22:05.016Z,1036.67
2017-09-23T07:23:05.013Z,1036.72
2017-09-23T07:24:05.006Z,1036.73
2017-09-23T07:25:05.000Z,1036.71
2017-09-23T07:26:04.995Z,1036.74
2017-09-23T07:27:04.990Z,1036.75
2017-09-23T07:28:04.986Z,1036.76
2017-09-23T07:29:04.980Z,1036.76
2017-09-23T07:30:04.977Z,1036.77
2017-09-23T07:31:04.972Z,1036.73
2017-09-23T07:32:04.965Z,1036.71
2017-09-23T07:33:04.960Z,1036.69
2017-09-23T07:34:04.954Z,1036.62
2017-09-23T07:35:04.951Z,1036.57
2017-09-23T07:36:04.945Z,1036.49
2017-09-23T07:37:04.941Z,1036.47
2017-09-23T07:38:04.936Z,1036.36
2017-09-23T07:39:04.930Z,1036.3
2017-09-23T07:40:04.925Z,1036.22
2017-09-23T07:41:04.924Z,1036.17
2017-09-23T07:42:04.915Z,1036.12
2017-09-23T07:43:04.909Z,1036.03
2017-09-23T07:44:04.906Z,1036
2017-09-23T07:45:04.902Z,1035.97
2017-09-23T07:46:04.897Z,1035.92
2017-09-23T07:47:04.895Z,1035.85
2017-09-23T07:48:04.886Z,1035.8
2017-09-23T07:49:04.884Z,1035.82
2017-09-23T07:50:04.877Z,1035.83
2017-09-23T07:51:04.873Z,1035.86
2017-09-23T07:52:04.869Z,1035.86
2017-09-23T07:53:04.865Z,1035.83
2017-09-23T07:54:04.859Z,1035.79
2017-09-23T07:55:04.856Z,1035.72
2017-09-23T07:56:04.852Z,1035.67
2017-09-23T07:57:04.847Z,1035.65
2017-09-23T07:58:04.843Z,1035.6
2017-09-23T07:59:04.839Z,1035.47
2017-09-23T08:00:04.834Z,1035.42
2017-09-23T08:01:04.830Z,1035.31
2017-09-23T08:02:04.827Z,1035.27
2017-09-23T08:03:04.822Z,1035.26
2017-09-23T08:04:04.820Z,1035.14
2017-09-23T08:05:04.814Z,1035.1
2017-09-23T08:06:04.812Z,1035.08
2017-09-23T08:07:04.808Z,1035.13
2017-09-23T08:08:04.803Z,1035.12
2017-09-23T08:09:04.800Z,1035.21
2017-09-23T08:10:04.796Z,1035.19
2017-09-23T08:11:04.793Z,1035.19
2017-09-23T08:12:04.790Z,1035.15
2017-09-23T08:13:04.786Z,1035.17
2017-09-23T08:14:04.782Z,1035.15
2017-09-23T08:15:04.778Z,1035.13
2017-09-23T08:16:04.776Z,1035.16
2017-09-23T08:17:04.772Z,1035.19
2017-09-23T08:18:04.769Z,1035.19
2017-09-23T08:19:04.767Z,1035.19
2017-09-23T08:20:04.761Z,1035.23
2017-09-23T08:21:04.758Z,1035.21
2017-09-23T08:22:04.755Z,1035.19
2017-09-23T08:23:04.751Z,1035.19
2017-09-23T08:24:04.750Z,1035.17
2017-09-23T08:25:04.747Z,1035.22
2017-09-23T08:26:04.744Z,1035.24
2017-09-23T08:27:04.741Z,1035.24
2017-09-23T08:28:04.737Z,1035.21
2017-09-23T08:29:04.733Z,1035.21
2017-09-23T08:30:04.731Z,1035.22
2017-09-23T08:31:04.728Z,1035.2
2017-09-23T08:32:04.726Z,1035.12
2017-09-23T08:33:04.723Z,1035.06
2017-09-23T08:34:04.720Z,1034.98
2017-09-23T08:35:04.717Z,1034.92
2017-09-23T08:36:04.713Z,1034.98
2017-09-23T08:37:04.710Z,1034.9
2017-09-23T08:38:04.707Z,1034.86
2017-09-23T08:39:04.704Z,1034.84
2017-09-23T08:40:04.701Z,1034.84
2017-09-23T08:41:04.700Z,1034.82
2017-09-23T08:42:04.695Z,1034.81
2017-09-23T08:43:04.694Z,1034.88
2017-09-23T08:44:04.692Z,1034.91
2017-09-23T08:45:04.690Z,1034.97
2017-09-23T08:46:04.686Z,1034.98
2017-09-23T08:47:04.684Z,1034.96
2017-09-23T08:48:04.680Z,1034.99
2017-09-23T08:49:04.676Z,1035.03
2017-09-23T08:50:04.674Z,1034.94
2017-09-23T08:51:04.672Z,1034.93
2017-09-23T08:52:04.671Z,1034.86
2017-09-23T08:53:04.669Z,1034.85
2017-09-23T08:54:04.666Z,1034.84
2017-09-23T08:55:04.665Z,1034.84
2017-09-23T08:56:04.660Z,1034.82
2017-09-23T08:57:04.657Z,1034.82
2017-09-23T08:58:04.655Z,1034.78
2017-09-23T08:59:04.652Z,1034.77
2017-09-23T09:00:04.651Z,1034.77
2017-09-23T09:01:04.649Z,1034.74
2017-09-23T09:02:04.646Z,1034.74
2017-09-23T09:03:04.643Z,1034.72
2017-09-23T09:04:04.640Z,1034.66
2017-09-23T09:05:04.638Z,1034.64
2017-09-23T09:06:04.636Z,1034.62
2017-09-23T09:07:04.633Z,1034.61
2017-09-23T09:08:04.630Z,1034.59
2017-09-23T09:09:04.627Z,1034.48
2017-09-23T09:10:04.625Z,1034.46
2017-09-23T09:11:04.622Z,1034.4
2017-09-23T09:12:04.621Z,1034.39
2017-09-23T09:13:04.620Z,1034.4
2017-09-23T09:14:04.617Z,1034.38
2017-09-23T09:15:04.614Z,1034.3
2017-09-23T09:16:04.611Z,1034.25
2017-09-23T09:17:04.609Z,1034.23
2017-09-23T09:18:04.608Z,1034.23
2017-09-23T09:19:04.609Z,1034.17
2017-09-23T09:20:04.604Z,1034.12
2017-09-23T09:21:04.602Z,1034.08
2017-09-23T09:22:04.600Z,1034.05
2017-09-23T09:23:04.598Z,1034.04
2017-09-23T09:24:04.596Z,1034.03
2017-09-23T09:25:04.592Z,1034.04
2017-09-23T09:26:04.590Z,1034.05
2017-09-23T09:27:04.589Z,1034.06
2017-09-23T09:28:04.589Z,1034.11
2017-09-23T09:29:04.587Z,1034.15
2017-09-23T09:30:04.584Z,1034.21
2017-09-23T09:31:04.582Z,1034.31
2017-09-23T09:32:04.582Z,1034.43
2017-09-23T09:33:04.579Z,1034.51
2017-09-23T09:34:04.578Z,1034.55
2017-09-23T09:35:04.576Z,1034.57
2017-09-23T09:37:04.572Z,1034.62
2017-09-23T09:38:04.571Z,1034.62
2017-09-23T09:39:04.569Z,1034.54
2017-09-23T09:40:04.567Z,1034.49
2017-09-23T09:41:04.563Z,1034.47
2017-09-23T09:42:04.561Z,1034.49
2017-09-23T09:43:04.561Z,1034.54
2017-09-23T09:44:04.557Z,1034.53
2017-09-23T09:45:04.557Z,1034.57
2017-09-23T09:46:04.557Z,1034.58
2017-09-23T09:47:04.553Z,1034.61
2017-09-23T09:48:04.551Z,1034.58
2017-09-23T09:49:04.551Z,1034.64
2017-09-23T09:50:04.547Z,1034.64
2017-09-23T09:51:04.544Z,1034.59
2017-09-23T09:52:04.542Z,1034.57
2017-09-23T09:53:04.542Z,1034.53
2017-09-23T09:54:04.540Z,1034.58
2017-09-23T09:55:04.538Z,1034.57
2017-09-23T09:56:04.535Z,1034.54
2017-09-23T09:57:04.533Z,1034.51
2017-09-23T09:58:04.529Z,1034.48
2017-09-23T09:59:04.529Z,1034.4
2017-09-23T10:00:04.532Z,1034.38
2017-09-23T10:01:04.525Z,1034.44
2017-09-23T10:02:04.523Z,1034.47
2017-09-23T10:03:04.522Z,1034.55
2017-09-23T10:04:04.521Z,1034.63
2017-09-23T10:05:04.518Z,1034.64
2017-09-23T10:06:04.515Z,1034.7
2017-09-23T10:07:04.513Z,1034.77
2017-09-23T10:08:04.512Z,1034.78
2017-09-23T10:09:04.510Z,1034.84
2017-09-23T10:10:04.508Z,1034.83
2017-09-23T10:11:04.505Z,1034.83
2017-09-23T10:12:04.504Z,1034.74
2017-09-23T10:13:04.501Z,1034.71
2017-09-23T10:14:04.499Z,1034.65
2017-09-23T10:15:04.496Z,1034.65
2017-09-23T10:16:04.494Z,1034.61
2017-09-23T10:17:04.492Z,1034.63
2017-09-23T10:18:04.491Z,1034.6
2017-09-23T10:19:04.489Z,1034.57
2017-09-23T10:20:04.490Z,1034.59
2017-09-23T10:21:04.483Z,1034.54
2017-09-23T10:22:04.481Z,1034.55
2017-09-23T10:23:04.481Z,1034.55
2017-09-23T10:24:04.479Z,1034.58
2017-09-23T10:25:04.475Z,1034.5
2017-09-23T10:26:04.472Z,1034.49
2017-09-23T10:27:04.471Z,1034.49
2017-09-23T10:28:04.469Z,1034.39
2017-09-23T10:29:04.468Z,1034.38
2017-09-23T10:30:04.467Z,1034.33
2017-09-23T10:31:04.465Z,1034.26
2017-09-23T10:32:04.462Z,1034.19
2017-09-23T10:33:04.459Z,1034.1
2017-09-23T10:34:04.458Z,1033.99
2017-09-23T10:35:04.459Z,1033.85
2017-09-23T10:36:04.453Z,1033.82
2017-09-23T10:37:04.453Z,1033.82
2017-09-23T10:38:04.451Z,1033.86
2017-09-23T10:39:04.449Z,1033.8
2017-09-23T10:40:04.448Z,1033.8
2017-09-23T10:41:04.445Z,1033.72
2017-09-23T10:42:04.443Z,1033.67
2017-09-23T10:43:04.441Z,1033.61
2017-09-23T10:44:04.441Z,1033.49
2017-09-23T10:45:04.441Z,1033.42
2017-09-23T10:46:04.439Z,1033.41
2017-09-23T10:47:04.441Z,1033.41
2017-09-23T10:48:04.435Z,1033.31
2017-09-23T10:49:04.435Z,1033.32
2017-09-23T10:50:04.434Z,1033.31
2017-09-23T10:51:04.433Z,1033.25
2017-09-23T10:52:04.431Z,1033.19
2017-09-23T10:53:04.429Z,1033.08
2017-09-23T10:54:04.428Z,1033.01
2017-09-23T10:55:04.428Z,1033.06
2017-09-23T10:56:04.426Z,1033.07
2017-09-23T10:57:04.427Z,1033.09
2017-09-23T10:58:04.425Z,1033.08
2017-09-23T10:59:04.425Z,1033.1
2017-09-23T11:00:04.423Z,1033.13
2017-09-23T11:01:04.421Z,1033.16
2017-09-23T11:02:04.420Z,1033.17
2017-09-23T11:03:04.420Z,1033.25
2017-09-23T11:04:04.419Z,1033.24
2017-09-23T11:05:04.419Z,1033.25
2017-09-23T11:06:04.419Z,1033.27
2017-09-23T11:07:04.418Z,1033.25
2017-09-23T11:08:04.417Z,1033.27
2017-09-23T11:09:04.413Z,1033.28
2017-09-23T11:10:04.414Z,1033.33
2017-09-23T11:11:04.412Z,1033.35
2017-09-23T11:12:04.411Z,1033.36
2017-09-23T11:13:04.411Z,1033.41
2017-09-23T11:14:04.410Z,1033.43
2017-09-23T11:15:04.409Z,1033.32
2017-09-23T11:16:04.408Z,1033.3
2017-09-23T11:17:04.409Z,1033.29
2017-09-23T11:18:04.409Z,1033.24
2017-09-23T11:19:04.406Z,1033.21
2017-09-23T11:20:04.406Z,1033.21
2017-09-23T11:21:04.404Z,1033.16
2017-09-23T11:22:04.401Z,1033.16
2017-09-23T11:23:04.402Z,1033.12
2017-09-23T11:24:04.401Z,1033.12
2017-09-23T11:25:04.402Z,1033.06
2017-09-23T11:26:04.400Z,1033.07
2017-09-23T11:27:04.399Z,1033.11
2017-09-23T11:28:04.399Z,1033.07
2017-09-23T11:29:04.397Z,1033.17
2017-09-23T11:30:04.397Z,1033.21
2017-09-23T11:31:04.394Z,1033.27
2017-09-23T11:32:04.393Z,1033.34
2017-09-23T11:33:04.394Z,1033.41
2017-09-23T11:34:04.393Z,1033.48
2017-09-23T11:35:04.392Z,1033.51
2017-09-23T11:36:04.392Z,1033.54
2017-09-23T11:37:04.388Z,1033.59
2017-09-23T11:38:04.388Z,1033.65
2017-09-23T11:39:04.388Z,1033.64
2017-09-23T11:40:04.386Z,1033.7
2017-09-23T11:41:04.384Z,1033.74
2017-09-23T11:42:04.382Z,1033.78
2017-09-23T11:43:04.382Z,1033.9
2017-09-23T11:44:04.379Z,1033.92
2017-09-23T11:45:04.379Z,1033.93
2017-09-23T11:46:04.377Z,1033.99
2017-09-23T11:47:04.379Z,1033.97
2017-09-23T11:48:04.375Z,1034.01
2017-09-23T11:49:04.373Z,1034.02
2017-09-23T11:50:04.370Z,1034.04
2017-09-23T11:51:04.368Z,1034.09
2017-09-23T11:52:04.371Z,1034.12
2017-09-23T11:53:04.366Z,1034.15
2017-09-23T11:54:04.365Z,1034.23
2017-09-23T11:55:04.362Z,1034.27
2017-09-23T11:56:04.360Z,1034.27
2017-09-23T11:57:04.357Z,1034.27
2017-09-23T11:58:04.355Z,1034.27
2017-09-23T11:59:04.352Z,1034.25
2017-09-23T12:00:04.350Z,1034.29
2017-09-23T12:01:04.349Z,1034.26
2017-09-23T12:02:04.347Z,1034.3
2017-09-23T12:03:04.345Z,1034.32
2017-09-23T12:04:04.342Z,1034.31
2017-09-23T12:05:04.345Z,1034.27
2017-09-23T12:06:04.337Z,1034.29
2017-09-23T12:07:04.335Z,1034.29
2017-09-23T12:08:04.333Z,1034.24
2017-09-23T12:09:04.330Z,1034.2